sensor_id;sensor_type;location;lat;lon;timestamp;pressure;altitude;pressure_sealevel;temperature;humidity
77079;BME280;66004;55.096;38.760;2023-02-28T10:16:06;99737.53;;;0.84;48.78
77079;BME280;66004;55.096;38.760;2023-02-28T10:21:39;99730.31;;;0.83;49.40
77079;BME280;66004;55.096;38.760;2023-02-28T10:27:00;99711.47;;;0.85;49.51
77079;BME280;66004;55.096;38.760;2023-02-28T10:29:28;99709.84;;;0.84;49.61
77079;BME280;66004;55.096;38.760;2023-02-28T10:31:56;99691.63;;;0.62;49.35
77079;BME280;66004;55.096;38.760;2023-02-28T10:34:22;99664.28;;;0.50;49.61
77079;BME280;66004;55.096;38.760;2023-02-28T10:36:50;99667.84;;;0.61;49.63
77079;BME280;66004;55.096;38.760;2023-02-28T10:39:43;99661.13;;;0.77;50.10
77079;BME280;66004;55.096;38.760;2023-02-28T10:42:29;99676.03;;;0.87;50.17
77079;BME280;66004;55.096;38.760;2023-02-28T10:45:11;99686.59;;;0.80;50.31
77079;BME280;66004;55.096;38.760;2023-02-28T10:47:53;99677.22;;;0.70;50.25
77079;BME280;66004;55.096;38.760;2023-02-28T10:54:12;99672.78;;;0.74;50.79
77079;BME280;66004;55.096;38.760;2023-02-28T10:56:24;99675.44;;;0.95;50.56
77079;BME280;66004;55.096;38.760;2023-02-28T10:59:01;99668.66;;;1.16;50.18
77079;BME280;66004;55.096;38.760;2023-02-28T11:03:55;99632.75;;;1.01;50.61
77079;BME280;66004;55.096;38.760;2023-02-28T11:06:28;99646.88;;;1.00;50.99
77079;BME280;66004;55.096;38.760;2023-02-28T11:08:57;99637.19;;;1.02;50.90
77079;BME280;66004;55.096;38.760;2023-02-28T11:11:26;99641.66;;;0.93;51.33
77079;BME280;66004;55.096;38.760;2023-02-28T11:13:56;99636.16;;;0.83;51.99
77079;BME280;66004;55.096;38.760;2023-02-28T11:16:32;99627.38;;;0.75;52.35
77079;BME280;66004;55.096;38.760;2023-02-28T11:18:58;99615.25;;;0.61;52.62
77079;BME280;66004;55.096;38.760;2023-02-28T11:21:34;99631.88;;;0.56;53.25
77079;BME280;66004;55.096;38.760;2023-02-28T11:24:19;99626.16;;;0.37;53.62
77079;BME280;66004;55.096;38.760;2023-02-28T11:26:48;99620.34;;;0.38;53.63
77079;BME280;66004;55.096;38.760;2023-02-28T11:29:26;99623.13;;;0.33;53.78
77079;BME280;66004;55.096;38.760;2023-02-28T11:32:19;99614.81;;;0.38;53.89
77079;BME280;66004;55.096;38.760;2023-02-28T11:34:46;99610.41;;;0.32;53.92
77079;BME280;66004;55.096;38.760;2023-02-28T11:37:15;99604.81;;;0.43;53.91
77079;BME280;66004;55.096;38.760;2023-02-28T11:39:43;99617.50;;;0.49;53.83
77079;BME280;66004;55.096;38.760;2023-02-28T11:45:21;99609.28;;;0.38;54.14
77079;BME280;66004;55.096;38.760;2023-02-28T11:47:49;99604.88;;;0.27;54.31
77079;BME280;66004;55.096;38.760;2023-02-28T11:52:53;99612.09;;;0.23;54.78
77079;BME280;66004;55.096;38.760;2023-02-28T11:55:36;99606.84;;;0.27;54.72
77079;BME280;66004;55.096;38.760;2023-02-28T11:58:37;99612.66;;;0.25;54.79
77079;BME280;66004;55.096;38.760;2023-02-28T12:09:29;99602.22;;;-0.04;55.43
77079;BME280;66004;55.096;38.760;2023-02-28T12:14:55;99577.34;;;-0.14;55.97
77079;BME280;66004;55.096;38.760;2023-02-28T12:20:34;99581.84;;;-0.33;56.45
77079;BME280;66004;55.096;38.760;2023-02-28T12:28:41;99596.78;;;-0.55;57.44
77079;BME280;66004;55.096;38.760;2023-02-28T12:31:29;99603.44;;;-0.51;57.44
77079;BME280;66004;55.096;38.760;2023-02-28T12:34:00;99586.84;;;-0.56;57.60
77079;BME280;66004;55.096;38.760;2023-02-28T12:36:27;99586.84;;;-0.56;58.03
77079;BME280;66004;55.096;38.760;2023-02-28T12:38:59;99575.50;;;-0.65;57.99
77079;BME280;66004;55.096;38.760;2023-02-28T12:44:37;99579.09;;;-0.59;58.59
77079;BME280;66004;55.096;38.760;2023-02-28T12:47:14;99572.75;;;-0.60;58.73
77079;BME280;66004;55.096;38.760;2023-02-28T12:49:49;99552.03;;;-0.77;59.28
77079;BME280;66004;55.096;38.760;2023-02-28T12:52:23;99558.69;;;-0.79;59.74
77079;BME280;66004;55.096;38.760;2023-02-28T12:54:59;99559.78;;;-0.74;59.91
77079;BME280;66004;55.096;38.760;2023-02-28T12:57:42;99560.59;;;-0.74;60.69
77079;BME280;66004;55.096;38.760;2023-02-28T13:00:16;99554.78;;;-0.77;60.79
77079;BME280;66004;55.096;38.760;2023-02-28T13:02:55;99549.31;;;-0.83;61.55
77079;BME280;66004;55.096;38.760;2023-02-28T13:11:39;99540.44;;;-1.00;62.93
77079;BME280;66004;55.096;38.760;2023-02-28T13:14:16;99535.75;;;-1.10;63.20
77079;BME280;66004;55.096;38.760;2023-02-28T13:19:17;99528.59;;;-1.11;63.78
77079;BME280;66004;55.096;38.760;2023-02-28T13:21:44;99523.88;;;-1.10;63.76
77079;BME280;66004;55.096;38.760;2023-02-28T13:24:10;99527.19;;;-1.08;63.92
77079;BME280;66004;55.096;38.760;2023-02-28T13:34:37;99506.22;;;-1.25;64.72
77079;BME280;66004;55.096;38.760;2023-02-28T13:42:48;99503.19;;;-1.18;65.53
77079;BME280;66004;55.096;38.760;2023-02-28T13:48:00;99492.41;;;-1.20;65.32
77079;BME280;66004;55.096;38.760;2023-02-28T13:56:18;99480.53;;;-1.10;65.58
77079;BME280;66004;55.096;38.760;2023-02-28T13:58:53;99451.84;;;-1.14;65.73
77079;BME280;66004;55.096;38.760;2023-02-28T14:07:18;99445.22;;;-1.18;65.93
77079;BME280;66004;55.096;38.760;2023-02-28T14:09:55;99448.81;;;-1.12;65.61
77079;BME280;66004;55.096;38.760;2023-02-28T14:17:56;99452.09;;;-1.21;66.25
77079;BME280;66004;55.096;38.760;2023-02-28T14:20:26;99425.09;;;-1.24;66.28
77079;BME280;66004;55.096;38.760;2023-02-28T14:23:04;99443.28;;;-1.23;66.58
77079;BME280;66004;55.096;38.760;2023-02-28T14:38:37;99426.75;;;-1.33;68.05
77079;BME280;66004;55.096;38.760;2023-02-28T14:41:17;99415.69;;;-1.33;68.13
77079;BME280;66004;55.096;38.760;2023-02-28T14:43:54;99412.41;;;-1.30;68.00
77079;BME280;66004;55.096;38.760;2023-02-28T14:46:20;99416.78;;;-1.29;68.19
77079;BME280;66004;55.096;38.760;2023-02-28T14:48:47;99414.31;;;-1.30;68.05
77079;BME280;66004;55.096;38.760;2023-02-28T16:56:21;99325.19;;;-1.31;74.11
77079;BME280;66004;55.096;38.760;2023-02-28T16:58:49;99319.13;;;-1.28;74.15
77079;BME280;66004;55.096;38.760;2023-02-28T17:01:17;99313.59;;;-1.28;74.42
77079;BME280;66004;55.096;38.760;2023-02-28T17:03:50;99317.44;;;-1.29;74.53
77079;BME280;66004;55.096;38.760;2023-02-28T17:06:25;99314.69;;;-1.34;74.45
77079;BME280;66004;55.096;38.760;2023-02-28T17:08:53;99307.28;;;-1.33;74.72
77079;BME280;66004;55.096;38.760;2023-02-28T17:11:19;99299.81;;;-1.38;74.87
77079;BME280;66004;55.096;38.760;2023-02-28T17:13:45;99303.09;;;-1.31;74.85
77079;BME280;66004;55.096;38.760;2023-02-28T17:16:21;99302.56;;;-1.28;75.11
77079;BME280;66004;55.096;38.760;2023-02-28T17:18:48;99301.16;;;-1.25;74.91
77079;BME280;66004;55.096;38.760;2023-02-28T17:21:17;99289.59;;;-1.32;74.88
77079;BME280;66004;55.096;38.760;2023-02-28T17:23:43;99287.63;;;-1.27;75.06
77079;BME280;66004;55.096;38.760;2023-02-28T17:26:17;99290.94;;;-1.25;74.76
77079;BME280;66004;55.096;38.760;2023-02-28T17:28:46;99285.97;;;-1.23;74.74
77079;BME280;66004;55.096;38.760;2023-02-28T17:31:11;99290.38;;;-1.22;74.49
77079;BME280;66004;55.096;38.760;2023-02-28T17:33:37;99283.19;;;-1.23;74.58
77079;BME280;66004;55.096;38.760;2023-02-28T17:36:03;99288.72;;;-1.23;74.39
77079;BME280;66004;55.096;38.760;2023-02-28T17:38:29;99287.09;;;-1.24;74.60
77079;BME280;66004;55.096;38.760;2023-02-28T17:40:56;99271.09;;;-1.27;74.87
77079;BME280;66004;55.096;38.760;2023-02-28T17:43:25;99270.53;;;-1.24;74.97
77079;BME280;66004;55.096;38.760;2023-02-28T17:46:04;99253.97;;;-1.24;75.08
77079;BME280;66004;55.096;38.760;2023-02-28T17:48:32;99253.38;;;-1.21;75.08
77079;BME280;66004;55.096;38.760;2023-02-28T17:50:58;99262.25;;;-1.19;75.34
77079;BME280;66004;55.096;38.760;2023-02-28T17:53:24;99265.22;;;-1.15;74.98
77079;BME280;66004;55.096;38.760;2023-02-28T17:55:50;99261.09;;;-1.12;75.00
77079;BME280;66004;55.096;38.760;2023-02-28T17:58:16;99269.94;;;-1.10;75.01
77079;BME280;66004;55.096;38.760;2023-02-28T18:00:44;99262.19;;;-1.08;74.84
77079;BME280;66004;55.096;38.760;2023-02-28T18:03:10;99258.03;;;-1.06;74.96
77079;BME280;66004;55.096;38.760;2023-02-28T18:05:38;99257.22;;;-1.06;74.86
77079;BME280;66004;55.096;38.760;2023-02-28T18:08:05;99254.44;;;-1.06;74.72
77079;BME280;66004;55.096;38.760;2023-02-28T18:10:31;99256.59;;;-0.98;74.83
77079;BME280;66004;55.096;38.760;2023-02-28T18:12:58;99261.56;;;-0.95;74.63
77079;BME280;66004;55.096;38.760;2023-02-28T18:15:24;99254.41;;;-0.96;74.40
77079;BME280;66004;55.096;38.760;2023-02-28T18:17:50;99243.38;;;-0.96;74.30
77079;BME280;66004;55.096;38.760;2023-02-28T18:20:17;99230.66;;;-0.97;74.40
77079;BME280;66004;55.096;38.760;2023-02-28T18:22:44;99231.47;;;-0.96;74.35
77079;BME280;66004;55.096;38.760;2023-02-28T18:25:10;99228.41;;;-0.90;74.31
77079;BME280;66004;55.096;38.760;2023-02-28T18:27:41;99221.78;;;-0.89;74.06
77079;BME280;66004;55.096;38.760;2023-02-28T18:30:19;99227.28;;;-0.89;74.12
77079;BME280;66004;55.096;38.760;2023-02-28T18:32:45;99230.59;;;-0.87;74.32
77079;BME280;66004;55.096;38.760;2023-02-28T18:35:12;99238.59;;;-0.85;74.13
77079;BME280;66004;55.096;38.760;2023-02-28T18:37:37;99242.22;;;-0.85;74.23
77079;BME280;66004;55.096;38.760;2023-02-28T18:40:04;99239.44;;;-0.85;74.23
77079;BME280;66004;55.096;38.760;2023-02-28T18:42:30;99240.53;;;-0.86;74.19
77079;BME280;66004;55.096;38.760;2023-02-28T18:44:56;99243.31;;;-0.86;74.28
77079;BME280;66004;55.096;38.760;2023-02-28T18:47:21;99248.00;;;-0.86;74.38
77079;BME280;66004;55.096;38.760;2023-02-28T18:49:47;99237.78;;;-0.86;74.31
77079;BME280;66004;55.096;38.760;2023-02-28T18:52:12;99238.88;;;-0.87;74.24
77079;BME280;66004;55.096;38.760;2023-02-28T18:54:38;99243.88;;;-0.89;74.46
77079;BME280;66004;55.096;38.760;2023-02-28T18:57:04;99247.16;;;-0.87;74.39
77079;BME280;66004;55.096;38.760;2023-02-28T18:59:29;99234.47;;;-0.88;74.46
77079;BME280;66004;55.096;38.760;2023-02-28T19:01:55;99242.75;;;-0.83;74.37
77079;BME280;66004;55.096;38.760;2023-02-28T19:04:22;99238.84;;;-0.82;74.42
77079;BME280;66004;55.096;38.760;2023-02-28T19:06:48;99242.75;;;-0.83;74.60
77079;BME280;66004;55.096;38.760;2023-02-28T19:09:13;99233.94;;;-0.85;74.84
77079;BME280;66004;55.096;38.760;2023-02-28T19:11:39;99236.38;;;-0.83;74.72
77079;BME280;66004;55.096;38.760;2023-02-28T19:14:05;99231.19;;;-0.90;74.54
77079;BME280;66004;55.096;38.760;2023-02-28T19:16:30;99259.06;;;-0.86;74.21
77079;BME280;66004;55.096;38.760;2023-02-28T19:18:56;99285.59;;;-0.90;73.92
77079;BME280;66004;55.096;38.760;2023-02-28T19:21:23;99301.97;;;-1.20;73.17
77079;BME280;66004;55.096;38.760;2023-02-28T19:23:49;99298.72;;;-1.47;72.61
77079;BME280;66004;55.096;38.760;2023-02-28T19:26:20;99297.09;;;-1.59;72.30
77079;BME280;66004;55.096;38.760;2023-02-28T19:28:46;99297.13;;;-1.69;70.98
77079;BME280;66004;55.096;38.760;2023-02-28T19:31:24;99304.84;;;-1.71;67.85
77079;BME280;66004;55.096;38.760;2023-02-28T19:33:50;99302.34;;;-1.78;66.71
77079;BME280;66004;55.096;38.760;2023-02-28T19:36:19;99310.91;;;-1.94;67.10
77079;BME280;66004;55.096;38.760;2023-02-28T19:38:44;99310.91;;;-2.10;67.89
77079;BME280;66004;55.096;38.760;2023-02-28T19:41:11;99304.00;;;-2.23;68.33
77079;BME280;66004;55.096;38.760;2023-02-28T19:43:37;99302.63;;;-2.30;68.88
77079;BME280;66004;55.096;38.760;2023-02-28T19:46:03;99293.25;;;-2.35;68.44
77079;BME280;66004;55.096;38.760;2023-02-28T19:48:29;99297.66;;;-2.33;67.84
77079;BME280;66004;55.096;38.760;2023-02-28T19:53:21;99296.84;;;-2.29;67.63
77079;BME280;66004;55.096;38.760;2023-02-28T19:55:47;99289.66;;;-2.25;66.86
77079;BME280;66004;55.096;38.760;2023-02-28T19:58:13;99288.88;;;-2.20;65.79
77079;BME280;66004;55.096;38.760;2023-02-28T20:00:39;99291.06;;;-2.17;64.57
77079;BME280;66004;55.096;38.760;2023-02-28T20:03:05;99277.53;;;-2.19;64.09
77079;BME280;66004;55.096;38.760;2023-02-28T20:05:31;99275.09;;;-2.20;64.27
77079;BME280;66004;55.096;38.760;2023-02-28T20:07:56;99277.28;;;-2.12;63.84
77079;BME280;66004;55.096;38.760;2023-02-28T20:10:21;99278.66;;;-2.14;63.79
77079;BME280;66004;55.096;38.760;2023-02-28T20:12:47;99280.31;;;-2.13;64.08
77079;BME280;66004;55.096;38.760;2023-02-28T20:15:12;99274.25;;;-2.21;63.79
77079;BME280;66004;55.096;38.760;2023-02-28T20:17:38;99279.50;;;-2.14;64.17
77079;BME280;66004;55.096;38.760;2023-02-28T20:20:06;99288.03;;;-2.16;63.45
77079;BME280;66004;55.096;38.760;2023-02-28T20:22:36;99280.88;;;-2.17;63.73
77079;BME280;66004;55.096;38.760;2023-02-28T20:25:02;99298.22;;;-2.16;63.78
77079;BME280;66004;55.096;38.760;2023-02-28T20:27:28;99293.00;;;-2.18;64.02
77079;BME280;66004;55.096;38.760;2023-02-28T20:29:53;99303.72;;;-2.21;64.27
77079;BME280;66004;55.096;38.760;2023-02-28T20:32:19;99218.84;;;-2.65;64.59
77079;BME280;66004;55.096;38.760;2023-02-28T20:34:44;99277.28;;;-2.32;64.77
77079;BME280;66004;55.096;38.760;2023-02-28T20:37:10;99296.84;;;-2.24;65.24
77079;BME280;66004;55.096;38.760;2023-02-28T20:39:36;99274.53;;;-2.27;65.49
77079;BME280;66004;55.096;38.760;2023-02-28T20:42:01;99273.41;;;-2.21;65.44
77079;BME280;66004;55.096;38.760;2023-02-28T20:44:27;99269.56;;;-2.20;65.18
77079;BME280;66004;55.096;38.760;2023-02-28T20:46:52;99271.78;;;-2.22;64.86
77079;BME280;66004;55.096;38.760;2023-02-28T20:49:18;99262.94;;;-2.24;65.21
